Time;durP1;ratioP1;P1;durP2;ratioP2;P2;SDS_P1;SDS_P2;PMS_P1;PMS_P2;Temp;Humidity;BMP_temperature;BMP_pressure;BME280_temperature;BME280_humidity;BME280_pressure;Samples;Min_cycle;Max_cycle;Signal;HPM_P1;HPM_P2
2022/12/09 00:01:37;;;;;;;41.37;22.13;;;;;;;;;;5001590;28;20411;-42
2022/12/09 00:04:03;;;;;;;39.40;20.10;;;;;;;;;;4999950;28;20411;-43
2022/12/09 00:06:29;;;;;;;32.58;20.08;;;;;;;;;;5004121;28;20430;-42
2022/12/09 00:08:56;;;;;;;31.08;19.48;;;;;;;;;;4997992;28;20195;-42
2022/12/09 00:11:22;;;;;;;35.92;21.70;;;;;;;;;;5004485;28;20180;-42
2022/12/09 00:13:49;;;;;;;32.83;20.15;;;;;;;;;;4993638;28;20173;-42
2022/12/09 00:16:15;;;;;;;34.95;23.95;;;;;;;;;;4990314;28;20705;-42
2022/12/09 00:18:41;;;;;;;38.63;20.55;;;;;;;;;;4989797;28;20173;-42
2022/12/09 00:21:14;;;;;;;31.55;21.25;;;;;;;;;;4992679;28;20173;-41
2022/12/09 00:23:41;;;;;;;36.42;20.77;;;;;;;;;;5001515;28;20252;-42
2022/12/09 00:26:07;;;;;;;36.50;21.00;;;;;;;;;;5001800;28;20264;-42
2022/12/09 00:28:33;;;;;;;34.08;22.25;;;;;;;;;;5000842;28;20594;-41
2022/12/09 00:30:59;;;;;;;32.47;21.27;;;;;;;;;;5004018;28;20181;-43
2022/12/09 00:33:25;;;;;;;34.70;21.80;;;;;;;;;;4998346;28;20209;-42
2022/12/09 00:35:51;;;;;;;37.60;21.97;;;;;;;;;;5002768;28;20201;-42
2022/12/09 00:38:17;;;;;;;35.67;21.23;;;;;;;;;;5004691;28;20407;-42
2022/12/09 00:40:43;;;;;;;40.17;21.50;;;;;;;;;;5001556;28;20447;-41
2022/12/09 00:43:09;;;;;;;42.40;21.43;;;;;;;;;;5002655;28;20411;-42
2022/12/09 00:45:35;;;;;;;30.47;19.70;;;;;;;;;;5000319;28;20435;-41
2022/12/09 00:48:01;;;;;;;36.67;21.20;;;;;;;;;;5003757;28;20454;-41
2022/12/09 00:50:27;;;;;;;33.53;20.37;;;;;;;;;;5000826;28;20418;-41
2022/12/09 00:52:52;;;;;;;26.87;18.90;;;;;;;;;;5001503;28;20490;-42
2022/12/09 00:55:18;;;;;;;35.23;18.40;;;;;;;;;;5004080;28;20433;-42
2022/12/09 00:57:44;;;;;;;32.33;20.73;;;;;;;;;;5000036;28;20932;-47
2022/12/09 01:00:11;;;;;;;32.40;20.03;;;;;;;;;;5003012;28;20177;-42
2022/12/09 01:02:37;;;;;;;30.58;20.73;;;;;;;;;;5000718;28;20412;-44
2022/12/09 01:05:03;;;;;;;33.27;21.20;;;;;;;;;;5002103;28;20222;-44
2022/12/09 01:07:29;;;;;;;31.33;19.35;;;;;;;;;;4999944;28;20757;-44
2022/12/09 01:09:55;;;;;;;32.50;19.20;;;;;;;;;;5001580;28;20176;-44
2022/12/09 01:12:21;;;;;;;28.10;19.27;;;;;;;;;;5003816;28;20664;-47
2022/12/09 01:14:47;;;;;;;34.27;20.73;;;;;;;;;;4999076;28;20432;-46
2022/12/09 01:17:13;;;;;;;35.03;19.97;;;;;;;;;;5005744;28;20423;-45
2022/12/09 01:19:39;;;;;;;29.57;19.13;;;;;;;;;;5012398;28;20403;-45
2022/12/09 01:22:05;;;;;;;30.80;19.48;;;;;;;;;;5007286;28;20404;-47
2022/12/09 01:24:31;;;;;;;35.90;20.53;;;;;;;;;;5011960;28;20188;-44
2022/12/09 01:26:57;;;;;;;30.17;20.03;;;;;;;;;;5012421;28;20412;-46
2022/12/09 01:29:23;;;;;;;30.53;19.60;;;;;;;;;;5009521;28;20441;-46
2022/12/09 01:31:49;;;;;;;32.60;20.70;;;;;;;;;;5004451;28;20466;-46
2022/12/09 01:34:15;;;;;;;36.40;21.60;;;;;;;;;;5004531;28;20408;-45
2022/12/09 01:36:41;;;;;;;36.35;20.83;;;;;;;;;;4998781;28;20428;-44
2022/12/09 01:39:07;;;;;;;34.85;21.95;;;;;;;;;;5010554;28;20202;-44
2022/12/09 01:41:34;;;;;;;36.23;20.67;;;;;;;;;;5014522;28;20188;-44
2022/12/09 01:44:12;;;;;;;34.83;20.58;;;;;;;;;;5001276;28;20932;-46
2022/12/09 01:46:38;;;;;;;33.70;20.67;;;;;;;;;;5009965;28;20566;-45
2022/12/09 01:49:06;;;;;;;42.77;23.47;;;;;;;;;;5003691;28;20195;-46
2022/12/09 01:51:32;;;;;;;34.42;21.50;;;;;;;;;;5010573;28;20466;-44
2022/12/09 01:53:58;;;;;;;36.25;23.10;;;;;;;;;;5007769;28;20176;-45
2022/12/09 01:56:33;;;;;;;41.78;22.73;;;;;;;;;;5006746;28;20644;-43
2022/12/09 01:59:02;;;;;;;39.97;22.75;;;;;;;;;;5008360;28;20175;-43
2022/12/09 02:01:28;;;;;;;33.13;22.05;;;;;;;;;;5005914;28;20180;-44
2022/12/09 02:03:54;;;;;;;34.15;21.55;;;;;;;;;;5006377;28;20184;-43
2022/12/09 02:06:20;;;;;;;38.03;22.65;;;;;;;;;;5005670;28;20559;-43
2022/12/09 02:08:47;;;;;;;37.03;22.93;;;;;;;;;;5011315;28;20176;-44
2022/12/09 02:11:22;;;;;;;38.97;23.00;;;;;;;;;;5006942;28;20411;-43
2022/12/09 02:14:06;;;;;;;34.67;21.77;;;;;;;;;;5003861;28;20181;-43
2022/12/09 02:16:55;;;;;;;33.67;21.20;;;;;;;;;;5002124;28;20204;-43
2022/12/09 02:19:40;;;;;;;44.50;23.60;;;;;;;;;;5006064;28;20184;-43
2022/12/09 02:22:06;;;;;;;40.05;22.50;;;;;;;;;;5000229;28;20191;-43
2022/12/09 02:24:35;;;;;;;34.38;21.48;;;;;;;;;;5009434;28;20173;-44
2022/12/09 02:27:11;;;;;;;39.40;22.60;;;;;;;;;;5004821;28;20300;-44
2022/12/09 02:29:46;;;;;;;40.33;23.98;;;;;;;;;;5002709;28;20248;-44
2022/12/09 02:32:12;;;;;;;34.92;20.73;;;;;;;;;;5007333;28;20593;-43
2022/12/09 02:34:41;;;;;;;33.93;23.07;;;;;;;;;;5009050;28;20192;-46
2022/12/09 02:37:16;;;;;;;36.80;22.17;;;;;;;;;;5004445;28;20451;-45
2022/12/09 02:39:42;;;;;;;39.95;22.08;;;;;;;;;;5001612;28;20526;-45
2022/12/09 02:42:08;;;;;;;41.30;22.27;;;;;;;;;;4999255;28;20181;-45
2022/12/09 02:44:36;;;;;;;32.10;21.23;;;;;;;;;;5003041;28;20555;-46
2022/12/09 02:47:03;;;;;;;33.65;21.95;;;;;;;;;;4992930;28;20649;-46
2022/12/09 02:49:30;;;;;;;40.28;23.88;;;;;;;;;;4999949;28;20236;-46
2022/12/09 02:51:56;;;;;;;41.00;24.65;;;;;;;;;;5000362;28;20200;-47
2022/12/09 02:54:23;;;;;;;38.35;23.83;;;;;;;;;;4999622;28;20199;-45
2022/12/09 02:56:52;;;;;;;40.97;22.73;;;;;;;;;;5001463;28;20276;-46
2022/12/09 02:59:18;;;;;;;39.85;23.25;;;;;;;;;;5004553;28;20527;-46
2022/12/09 03:01:56;;;;;;;36.30;22.95;;;;;;;;;;5003091;28;20187;-47
2022/12/09 03:04:23;;;;;;;38.00;21.83;;;;;;;;;;4994818;28;20658;-46
2022/12/09 03:06:51;;;;;;;46.60;23.67;;;;;;;;;;4999958;28;20223;-45
2022/12/09 03:09:26;;;;;;;40.80;23.02;;;;;;;;;;4999583;28;20634;-44
2022/12/09 03:11:52;;;;;;;34.17;21.70;;;;;;;;;;5003229;28;20200;-44
2022/12/09 03:14:30;;;;;;;31.90;20.50;;;;;;;;;;5000062;28;20177;-46
2022/12/09 03:17:00;;;;;;;34.55;21.00;;;;;;;;;;5000637;28;20187;-47
2022/12/09 03:19:33;;;;;;;39.03;23.40;;;;;;;;;;4992153;28;20173;-45
2022/12/09 03:22:02;;;;;;;34.70;21.75;;;;;;;;;;4999339;28;20181;-47
2022/12/09 03:24:30;;;;;;;30.90;20.63;;;;;;;;;;5007567;28;20241;-46
2022/12/09 03:26:57;;;;;;;33.53;20.50;;;;;;;;;;5003995;28;20195;-45
2022/12/09 03:29:24;;;;;;;40.67;21.05;;;;;;;;;;5004631;28;20192;-46
2022/12/09 03:31:51;;;;;;;30.42;20.52;;;;;;;;;;5005819;28;20196;-45
2022/12/09 03:34:19;;;;;;;38.42;21.55;;;;;;;;;;5004201;28;20184;-44
2022/12/09 03:36:47;;;;;;;31.77;20.73;;;;;;;;;;5004914;28;20196;-46
2022/12/09 03:39:14;;;;;;;31.60;20.88;;;;;;;;;;5008528;28;20248;-45
2022/12/09 03:41:44;;;;;;;35.13;22.70;;;;;;;;;;5007268;28;20180;-46
2022/12/09 03:44:17;;;;;;;38.05;23.02;;;;;;;;;;5007488;28;20679;-45
2022/12/09 03:46:43;;;;;;;30.23;19.88;;;;;;;;;;5000621;28;20279;-47
2022/12/09 03:49:09;;;;;;;39.72;20.85;;;;;;;;;;5002868;28;20642;-46
2022/12/09 03:51:56;;;;;;;38.50;20.55;;;;;;;;;;5004064;28;20205;-47
2022/12/09 03:54:22;;;;;;;35.17;21.48;;;;;;;;;;4999034;28;20165;-45
2022/12/09 03:56:51;;;;;;;38.13;22.40;;;;;;;;;;5005272;28;20568;-44
2022/12/09 03:59:18;;;;;;;33.65;21.75;;;;;;;;;;5005121;28;20979;-45
2022/12/09 04:01:45;;;;;;;36.45;23.83;;;;;;;;;;5005404;28;20543;-46
2022/12/09 04:04:11;;;;;;;37.72;22.55;;;;;;;;;;5000481;28;20256;-46
2022/12/09 04:06:38;;;;;;;36.30;21.90;;;;;;;;;;5006457;28;20204;-45
2022/12/09 04:09:04;;;;;;;34.63;21.30;;;;;;;;;;5004768;28;20180;-46
2022/12/09 04:11:31;;;;;;;34.65;21.00;;;;;;;;;;5003135;28;20227;-46
2022/12/09 04:13:57;;;;;;;30.92;21.10;;;;;;;;;;5005132;28;20634;-46
2022/12/09 04:16:23;;;;;;;33.20;21.20;;;;;;;;;;5003123;28;20197;-46
2022/12/09 04:18:49;;;;;;;36.30;22.53;;;;;;;;;;5003678;28;20420;-45
2022/12/09 04:21:15;;;;;;;39.15;21.15;;;;;;;;;;5003616;28;20413;-44
2022/12/09 04:23:41;;;;;;;39.25;21.65;;;;;;;;;;5008935;28;20203;-45
2022/12/09 04:26:07;;;;;;;34.87;22.27;;;;;;;;;;5002683;28;20293;-47
2022/12/09 04:28:33;;;;;;;36.50;20.87;;;;;;;;;;5001217;28;20406;-45
2022/12/09 04:30:59;;;;;;;44.63;23.10;;;;;;;;;;5001293;28;20790;-44
2022/12/09 04:33:25;;;;;;;41.42;21.83;;;;;;;;;;5000646;28;20460;-43
2022/12/09 04:35:51;;;;;;;41.88;22.00;;;;;;;;;;5002707;28;20701;-43
2022/12/09 04:38:17;;;;;;;34.93;22.13;;;;;;;;;;5003355;28;20169;-43
2022/12/09 04:40:43;;;;;;;37.75;21.27;;;;;;;;;;5003907;28;20430;-44
2022/12/09 04:43:09;;;;;;;28.85;18.95;;;;;;;;;;4998933;28;20176;-43
2022/12/09 04:45:36;;;;;;;38.43;20.93;;;;;;;;;;4996076;28;20207;-43
2022/12/09 04:48:02;;;;;;;33.15;21.10;;;;;;;;;;4994698;28;20411;-43
2022/12/09 04:50:28;;;;;;;31.17;19.60;;;;;;;;;;5001322;28;20227;-43
2022/12/09 04:52:54;;;;;;;37.93;21.63;;;;;;;;;;5002897;28;21045;-43
2022/12/09 04:55:20;;;;;;;52.97;22.20;;;;;;;;;;5000914;28;20788;-43
2022/12/09 04:57:46;;;;;;;37.77;22.07;;;;;;;;;;5001981;28;20790;-43
2022/12/09 05:00:12;;;;;;;42.00;23.97;;;;;;;;;;4997459;28;20494;-43
2022/12/09 05:02:38;;;;;;;39.17;24.20;;;;;;;;;;5003259;28;20417;-44
2022/12/09 05:05:05;;;;;;;43.83;24.17;;;;;;;;;;5001198;28;20696;-43
2022/12/09 05:07:31;;;;;;;38.70;22.63;;;;;;;;;;5000017;28;20419;-44
2022/12/09 05:09:57;;;;;;;43.85;23.88;;;;;;;;;;5001890;28;20182;-43
2022/12/09 05:12:24;;;;;;;33.30;21.77;;;;;;;;;;5000266;28;20483;-43
2022/12/09 05:14:50;;;;;;;40.00;22.90;;;;;;;;;;5000285;28;20579;-43
2022/12/09 05:17:16;;;;;;;42.73;23.20;;;;;;;;;;5000009;28;20172;-43
2022/12/09 05:19:43;;;;;;;34.90;22.87;;;;;;;;;;5005356;28;20413;-43
2022/12/09 05:22:09;;;;;;;32.15;20.40;;;;;;;;;;5000280;28;20407;-43
2022/12/09 05:24:35;;;;;;;33.00;19.87;;;;;;;;;;4997170;28;20196;-43
2022/12/09 05:27:01;;;;;;;37.40;22.80;;;;;;;;;;5002715;28;20489;-43
2022/12/09 05:29:27;;;;;;;44.83;22.53;;;;;;;;;;5011674;28;20252;-43
2022/12/09 05:31:53;;;;;;;38.20;21.50;;;;;;;;;;4994283;28;20798;-43
2022/12/09 05:34:18;;;;;;;46.30;25.33;;;;;;;;;;5005290;28;20849;-43
2022/12/09 05:36:44;;;;;;;38.30;25.03;;;;;;;;;;5002125;28;20490;-43
2022/12/09 05:39:10;;;;;;;39.67;22.97;;;;;;;;;;4997121;28;20439;-43
2022/12/09 05:41:36;;;;;;;49.73;23.80;;;;;;;;;;5010108;28;20522;-43
2022/12/09 05:44:02;;;;;;;41.63;24.53;;;;;;;;;;5001353;28;20481;-44
2022/12/09 05:46:28;;;;;;;47.28;24.67;;;;;;;;;;5003078;28;20474;-43
2022/12/09 05:48:54;;;;;;;38.40;23.23;;;;;;;;;;4995404;28;20216;-43
2022/12/09 05:51:25;;;;;;;43.23;22.50;;;;;;;;;;5003262;28;20418;-43
2022/12/09 05:53:51;;;;;;;48.00;24.95;;;;;;;;;;4998656;28;20438;-43
2022/12/09 05:56:17;;;;;;;52.00;25.38;;;;;;;;;;4999596;28;20211;-43
2022/12/09 05:58:44;;;;;;;37.15;22.90;;;;;;;;;;4999884;28;20235;-41
2022/12/09 06:01:10;;;;;;;41.45;24.20;;;;;;;;;;4998233;28;20628;-42
2022/12/09 06:03:36;;;;;;;48.65;23.92;;;;;;;;;;5003445;28;20317;-43
2022/12/09 06:06:09;;;;;;;37.35;23.02;;;;;;;;;;5008126;28;20283;-42
2022/12/09 06:08:35;;;;;;;44.13;24.45;;;;;;;;;;5006831;28;20259;-42
2022/12/09 06:11:02;;;;;;;43.65;24.75;;;;;;;;;;4992675;28;20568;-42
2022/12/09 06:13:28;;;;;;;45.22;24.40;;;;;;;;;;4999753;28;20677;-45
2022/12/09 06:15:54;;;;;;;43.78;22.75;;;;;;;;;;5005584;28;20200;-46
2022/12/09 06:18:20;;;;;;;38.88;22.65;;;;;;;;;;5005351;28;20288;-42
2022/12/09 06:20:46;;;;;;;39.58;21.42;;;;;;;;;;5004625;28;20260;-42
2022/12/09 06:23:13;;;;;;;38.15;21.85;;;;;;;;;;5005295;28;20197;-43
2022/12/09 06:25:42;;;;;;;32.77;20.40;;;;;;;;;;5004753;28;20288;-42
2022/12/09 06:28:08;;;;;;;38.67;22.02;;;;;;;;;;4999491;28;20446;-42
2022/12/09 06:30:34;;;;;;;35.30;21.27;;;;;;;;;;5006448;28;20223;-43
2022/12/09 06:33:00;;;;;;;37.73;21.17;;;;;;;;;;5003248;28;20454;-41
2022/12/09 06:35:26;;;;;;;41.77;23.30;;;;;;;;;;5002764;28;20436;-42
2022/12/09 06:37:52;;;;;;;36.63;22.57;;;;;;;;;;5008691;28;20407;-42
2022/12/09 06:40:20;;;;;;;35.60;23.25;;;;;;;;;;5003037;28;20407;-43
2022/12/09 06:42:49;;;;;;;31.42;21.10;;;;;;;;;;5003014;28;20540;-42
2022/12/09 06:45:15;;;;;;;33.15;19.92;;;;;;;;;;5002742;28;20255;-42
2022/12/09 06:47:41;;;;;;;36.95;22.83;;;;;;;;;;5007508;28;20216;-42
2022/12/09 06:50:08;;;;;;;39.57;22.00;;;;;;;;;;5002342;28;20207;-42
2022/12/09 06:52:34;;;;;;;38.60;21.90;;;;;;;;;;5000012;28;20459;-42
2022/12/09 06:55:00;;;;;;;35.13;21.30;;;;;;;;;;5002743;28;20195;-42
2022/12/09 06:57:26;;;;;;;31.15;19.15;;;;;;;;;;5002281;28;20189;-42
2022/12/09 06:59:52;;;;;;;34.40;19.33;;;;;;;;;;5004807;28;20180;-42
2022/12/09 07:02:18;;;;;;;46.93;24.23;;;;;;;;;;5005294;28;20451;-41
2022/12/09 07:04:44;;;;;;;37.67;21.13;;;;;;;;;;5005819;28;20418;-43
2022/12/09 07:07:10;;;;;;;38.30;22.07;;;;;;;;;;5000696;28;20900;-42
2022/12/09 07:09:36;;;;;;;45.47;22.63;;;;;;;;;;4997931;28;20922;-42
2022/12/09 07:12:02;;;;;;;38.00;23.30;;;;;;;;;;5005667;28;20219;-43
2022/12/09 07:14:28;;;;;;;37.30;21.67;;;;;;;;;;5003106;28;20760;-43
2022/12/09 07:16:54;;;;;;;43.33;21.50;;;;;;;;;;4996927;28;20559;-43
2022/12/09 07:19:22;;;;;;;39.50;24.20;;;;;;;;;;4994006;28;20407;-41
2022/12/09 07:21:48;;;;;;;41.45;22.85;;;;;;;;;;5003388;28;20408;-42
2022/12/09 07:24:14;;;;;;;40.78;24.60;;;;;;;;;;5002045;28;20642;-41
2022/12/09 07:26:40;;;;;;;35.30;22.13;;;;;;;;;;5002564;28;20193;-41
2022/12/09 07:29:07;;;;;;;35.90;23.00;;;;;;;;;;5007428;28;20261;-41
2022/12/09 07:31:33;;;;;;;37.72;22.23;;;;;;;;;;5006591;28;20407;-41
2022/12/09 07:33:59;;;;;;;49.35;24.80;;;;;;;;;;5000302;28;20250;-41
2022/12/09 07:36:26;;;;;;;35.90;22.75;;;;;;;;;;5003275;28;20276;-41
2022/12/09 07:38:56;;;;;;;35.67;20.50;;;;;;;;;;5004173;28;20264;-42
2022/12/09 07:41:22;;;;;;;33.97;20.50;;;;;;;;;;5005806;28;20180;-44
2022/12/09 07:43:48;;;;;;;36.70;22.03;;;;;;;;;;5006841;28;20180;-41
2022/12/09 07:46:16;;;;;;;41.75;22.40;;;;;;;;;;5001844;28;20446;-42
2022/12/09 07:48:42;;;;;;;46.72;23.48;;;;;;;;;;4998865;28;20231;-41
2022/12/09 07:51:08;;;;;;;39.57;21.53;;;;;;;;;;5001030;28;20181;-41
2022/12/09 07:53:34;;;;;;;38.60;22.65;;;;;;;;;;5001545;28;20451;-42
2022/12/09 07:56:01;;;;;;;63.15;48.28;;;;;;;;;;5004356;28;20204;-41
2022/12/09 07:58:27;;;;;;;38.13;22.17;;;;;;;;;;5003009;28;20165;-44
2022/12/09 08:00:54;;;;;;;36.22;22.35;;;;;;;;;;5004904;28;20188;-44
2022/12/09 08:03:20;;;;;;;36.53;21.35;;;;;;;;;;5001536;28;20276;-41
2022/12/09 08:05:47;;;;;;;38.30;21.10;;;;;;;;;;4996701;28;20280;-41
2022/12/09 08:08:13;;;;;;;30.98;20.65;;;;;;;;;;5004262;28;20510;-41
2022/12/09 08:10:39;;;;;;;36.40;20.70;;;;;;;;;;5000384;28;20611;-42
2022/12/09 08:13:05;;;;;;;32.72;20.73;;;;;;;;;;5003884;28;20443;-42
2022/12/09 08:15:31;;;;;;;41.97;21.25;;;;;;;;;;5001005;28;20195;-42
2022/12/09 08:17:57;;;;;;;32.20;19.77;;;;;;;;;;5002944;28;20248;-43
2022/12/09 08:20:23;;;;;;;36.70;21.10;;;;;;;;;;4999934;28;20408;-43
2022/12/09 08:22:49;;;;;;;37.17;22.07;;;;;;;;;;5002584;28;20925;-44
2022/12/09 08:25:15;;;;;;;38.53;22.45;;;;;;;;;;5002746;28;20818;-44
2022/12/09 08:27:41;;;;;;;41.57;21.50;;;;;;;;;;4999490;28;20185;-41
2022/12/09 08:30:07;;;;;;;35.67;21.33;;;;;;;;;;5002046;28;20418;-41
2022/12/09 08:32:33;;;;;;;35.78;23.23;;;;;;;;;;5001069;28;20552;-41
2022/12/09 08:34:59;;;;;;;41.17;22.13;;;;;;;;;;5001151;28;20324;-41
2022/12/09 08:37:25;;;;;;;37.70;21.92;;;;;;;;;;5005175;28;20901;-41
2022/12/09 08:39:51;;;;;;;36.47;21.80;;;;;;;;;;5001978;28;20176;-42
2022/12/09 08:42:17;;;;;;;37.63;23.30;;;;;;;;;;5001844;28;20445;-42
2022/12/09 08:44:43;;;;;;;39.33;23.27;;;;;;;;;;4997767;28;20487;-42
2022/12/09 08:47:10;;;;;;;38.10;24.25;;;;;;;;;;4999818;28;20181;-42
2022/12/09 08:49:36;;;;;;;39.65;24.13;;;;;;;;;;5000804;28;20252;-42
2022/12/09 08:52:03;;;;;;;41.95;23.63;;;;;;;;;;5003941;28;20203;-41
2022/12/09 08:54:29;;;;;;;42.17;23.73;;;;;;;;;;5001955;28;20174;-41
2022/12/09 08:56:55;;;;;;;43.70;22.90;;;;;;;;;;5003887;28;20187;-44
2022/12/09 08:59:21;;;;;;;42.72;23.50;;;;;;;;;;5000637;28;20490;-41
2022/12/09 09:01:47;;;;;;;41.50;23.33;;;;;;;;;;4995883;28;20304;-43
2022/12/09 09:04:14;;;;;;;43.83;24.00;;;;;;;;;;5002457;28;20680;-42
2022/12/09 09:06:41;;;;;;;32.60;22.48;;;;;;;;;;5001147;28;20430;-41
2022/12/09 09:09:08;;;;;;;38.05;22.15;;;;;;;;;;5003328;28;20218;-41
2022/12/09 09:11:34;;;;;;;48.28;23.73;;;;;;;;;;5000228;28;20212;-41
2022/12/09 09:14:02;;;;;;;39.47;23.20;;;;;;;;;;5002499;28;20201;-41
2022/12/09 09:16:28;;;;;;;38.30;22.67;;;;;;;;;;4999536;28;20561;-41
2022/12/09 09:18:54;;;;;;;38.00;22.03;;;;;;;;;;5001112;28;20300;-42
2022/12/09 09:21:21;;;;;;;34.97;20.75;;;;;;;;;;5003657;28;20833;-41
2022/12/09 09:23:47;;;;;;;32.67;19.55;;;;;;;;;;4999804;28;20307;-45
2022/12/09 09:26:15;;;;;;;40.05;23.23;;;;;;;;;;5000209;28;20303;-43
2022/12/09 09:28:41;;;;;;;33.90;21.20;;;;;;;;;;5000915;28;20627;-45
2022/12/09 09:31:09;;;;;;;41.37;24.77;;;;;;;;;;4991939;28;20176;-42
2022/12/09 09:33:35;;;;;;;41.28;23.00;;;;;;;;;;5000064;28;20463;-41
2022/12/09 09:36:02;;;;;;;43.22;22.80;;;;;;;;;;5005394;28;20234;-42
2022/12/09 09:38:28;;;;;;;40.92;22.55;;;;;;;;;;5006428;28;20176;-41
2022/12/09 09:40:55;;;;;;;39.15;23.70;;;;;;;;;;5001506;28;20259;-44
2022/12/09 09:43:25;;;;;;;36.88;22.00;;;;;;;;;;5002210;28;20651;-42
2022/12/09 09:45:52;;;;;;;46.97;21.15;;;;;;;;;;5005966;28;20686;-41
2022/12/09 09:48:22;;;;;;;36.13;20.98;;;;;;;;;;5006945;28;20164;-41
2022/12/09 09:50:52;;;;;;;38.13;22.25;;;;;;;;;;5005717;28;20176;-42
2022/12/09 09:53:29;;;;;;;33.55;20.52;;;;;;;;;;5005269;28;20255;-42
2022/12/09 09:55:59;;;;;;;41.03;22.80;;;;;;;;;;5005864;28;20208;-45
2022/12/09 09:58:25;;;;;;;37.55;22.10;;;;;;;;;;5003043;28;20672;-43
2022/12/09 10:00:56;;;;;;;34.57;21.03;;;;;;;;;;5004896;28;20184;-41
2022/12/09 10:03:41;;;;;;;39.45;21.20;;;;;;;;;;5007529;28;20407;-42
2022/12/09 10:06:17;;;;;;;41.25;22.73;;;;;;;;;;5002375;28;20752;-42
2022/12/09 10:08:54;;;;;;;37.60;22.70;;;;;;;;;;5001631;28;20260;-42
2022/12/09 10:11:25;;;;;;;33.92;21.20;;;;;;;;;;4995056;28;20185;-44
2022/12/09 10:13:56;;;;;;;40.80;22.65;;;;;;;;;;5004634;28;20648;-42
2022/12/09 10:16:41;;;;;;;33.85;20.63;;;;;;;;;;5002837;28;20267;-42
2022/12/09 10:19:16;;;;;;;34.17;20.67;;;;;;;;;;4992630;28;20188;-41
2022/12/09 10:21:43;;;;;;;35.15;22.55;;;;;;;;;;4995298;28;20188;-41
2022/12/09 10:24:28;;;;;;;31.85;19.58;;;;;;;;;;4995408;28;20169;-41
2022/12/09 10:26:57;;;;;;;34.85;21.40;;;;;;;;;;4994814;28;20176;-42
2022/12/09 10:29:44;;;;;;;34.63;19.40;;;;;;;;;;4990936;28;20185;-44
2022/12/09 10:32:15;;;;;;;31.63;19.58;;;;;;;;;;4990926;28;20314;-40
2022/12/09 10:34:41;;;;;;;44.35;21.83;;;;;;;;;;4994678;28;20655;-42
2022/12/09 10:37:14;;;;;;;36.83;22.30;;;;;;;;;;4994524;28;20189;-41
2022/12/09 10:39:40;;;;;;;35.85;20.65;;;;;;;;;;4994750;28;20411;-41
2022/12/09 10:45:03;;;;;;;29.50;20.10;;;;;;;;;;4994568;28;20216;-41
2022/12/09 10:47:30;;;;;;;46.55;21.90;;;;;;;;;;4994242;28;20654;-44
2022/12/09 10:49:58;;;;;;;33.95;19.25;;;;;;;;;;4993721;28;20181;-41
2022/12/09 10:52:25;;;;;;;37.70;21.05;;;;;;;;;;4994538;28;20633;-42
2022/12/09 10:54:52;;;;;;;35.95;20.27;;;;;;;;;;4993181;28;20276;-44
2022/12/09 10:57:18;;;;;;;33.00;20.65;;;;;;;;;;4990234;28;20191;-44
2022/12/09 10:59:56;;;;;;;36.30;20.67;;;;;;;;;;4996997;28;20544;-44
2022/12/09 11:02:22;;;;;;;30.27;19.48;;;;;;;;;;4995260;28;20225;-44
2022/12/09 11:04:49;;;;;;;33.63;21.00;;;;;;;;;;5001863;28;20208;-43
2022/12/09 11:07:16;;;;;;;33.72;20.42;;;;;;;;;;5009683;28;20195;-44
2022/12/09 11:09:46;;;;;;;38.60;22.30;;;;;;;;;;4994378;28;20188;-43
2022/12/09 11:12:28;;;;;;;33.95;21.33;;;;;;;;;;4993137;28;20192;-43
2022/12/09 11:14:54;;;;;;;33.13;20.80;;;;;;;;;;4987484;28;20188;-43
2022/12/09 11:17:22;;;;;;;34.33;19.70;;;;;;;;;;5012142;28;20179;-43
2022/12/09 11:19:51;;;;;;;29.13;18.35;;;;;;;;;;4998464;28;20462;-43
2022/12/09 11:22:37;;;;;;;27.33;17.73;;;;;;;;;;4993972;28;20268;-43
2022/12/09 11:25:14;;;;;;;36.53;19.85;;;;;;;;;;4993282;28;20439;-43
2022/12/09 11:27:51;;;;;;;26.77;18.23;;;;;;;;;;4993648;28;20186;-43
2022/12/09 11:30:23;;;;;;;24.80;18.33;;;;;;;;;;4993675;28;20418;-43
2022/12/09 11:32:52;;;;;;;27.83;19.80;;;;;;;;;;4998034;28;20833;-43
2022/12/09 11:35:19;;;;;;;28.77;18.70;;;;;;;;;;5005712;28;20511;-43
2022/12/09 11:37:46;;;;;;;29.40;19.40;;;;;;;;;;5008502;28;20398;-43
2022/12/09 11:40:16;;;;;;;25.90;18.00;;;;;;;;;;5007115;28;20406;-43
2022/12/09 11:42:42;;;;;;;27.03;18.00;;;;;;;;;;5002278;28;20414;-43
2022/12/09 11:45:19;;;;;;;32.10;20.10;;;;;;;;;;5004574;28;20432;-43
2022/12/09 11:47:46;;;;;;;32.30;20.60;;;;;;;;;;5003984;28;20416;-43
2022/12/09 11:50:15;;;;;;;27.07;17.97;;;;;;;;;;4998298;28;20759;-43
2022/12/09 11:52:42;;;;;;;29.97;20.40;;;;;;;;;;4997618;28;20470;-44
2022/12/09 11:55:22;;;;;;;31.50;19.27;;;;;;;;;;5013929;28;20427;-43
2022/12/09 11:57:51;;;;;;;31.55;20.73;;;;;;;;;;5007752;28;20416;-43
2022/12/09 12:00:24;;;;;;;33.90;20.25;;;;;;;;;;5002002;28;20594;-43
2022/12/09 12:03:02;;;;;;;33.03;21.20;;;;;;;;;;5002385;28;20639;-43
2022/12/09 12:05:32;;;;;;;33.53;20.02;;;;;;;;;;5000254;28;20206;-43
2022/12/09 12:07:58;;;;;;;35.28;21.48;;;;;;;;;;5003677;28;20168;-44
2022/12/09 12:10:27;;;;;;;29.97;19.20;;;;;;;;;;5003006;28;20279;-43
2022/12/09 12:12:59;;;;;;;28.67;17.70;;;;;;;;;;4999997;28;20487;-42
2022/12/09 12:15:52;;;;;;;35.60;19.67;;;;;;;;;;5000201;28;20424;-43
2022/12/09 12:18:19;;;;;;;30.33;19.20;;;;;;;;;;4993959;28;20500;-43
2022/12/09 12:20:56;;;;;;;25.20;17.73;;;;;;;;;;5002606;28;20506;-44
2022/12/09 12:23:22;;;;;;;33.40;17.70;;;;;;;;;;5005191;28;20451;-43
2022/12/09 12:25:59;;;;;;;19.57;14.77;;;;;;;;;;5000138;28;20866;-43
2022/12/09 12:28:28;;;;;;;27.53;17.37;;;;;;;;;;4998599;28;20784;-43
2022/12/09 12:31:05;;;;;;;30.07;15.93;;;;;;;;;;5001982;28;20476;-43
2022/12/09 12:33:40;;;;;;;28.73;15.07;;;;;;;;;;5000561;28;20957;-43
2022/12/09 12:36:12;;;;;;;29.37;14.60;;;;;;;;;;5000447;28;20434;-43
2022/12/09 12:38:52;;;;;;;18.07;12.50;;;;;;;;;;5000750;28;20498;-43
2022/12/09 12:41:28;;;;;;;20.70;13.70;;;;;;;;;;5001498;28;20406;-43
2022/12/09 12:46:44;;;;;;;21.03;12.70;;;;;;;;;;5002557;28;20851;-43
2022/12/09 12:49:17;;;;;;;17.87;12.50;;;;;;;;;;4999581;28;20916;-43
2022/12/09 12:51:46;;;;;;;17.90;12.00;;;;;;;;;;5002632;28;20430;-43
2022/12/09 12:54:31;;;;;;;18.63;12.60;;;;;;;;;;5000178;28;20912;-43
2022/12/09 12:56:59;;;;;;;16.93;11.50;;;;;;;;;;4991558;28;20967;-43
2022/12/09 12:59:35;;;;;;;22.10;14.00;;;;;;;;;;4992514;28;20411;-43
2022/12/09 13:02:15;;;;;;;19.30;12.10;;;;;;;;;;4992205;28;20455;-43
2022/12/09 13:04:58;;;;;;;18.13;12.73;;;;;;;;;;4991929;28;20423;-43
2022/12/09 13:07:36;;;;;;;15.40;12.23;;;;;;;;;;5000038;28;20638;-43
2022/12/09 13:10:04;;;;;;;17.85;12.80;;;;;;;;;;4996666;28;20419;-43
2022/12/09 13:12:55;;;;;;;20.30;13.27;;;;;;;;;;4999547;28;20271;-43
2022/12/09 13:15:32;;;;;;;15.98;11.52;;;;;;;;;;4998644;28;20247;-44
2022/12/09 13:18:18;;;;;;;17.00;12.30;;;;;;;;;;5003139;28;20196;-43
2022/12/09 13:20:48;;;;;;;19.60;13.00;;;;;;;;;;5003431;28;20275;-43
2022/12/09 13:23:33;;;;;;;18.48;13.30;;;;;;;;;;5002927;28;20215;-43
2022/12/09 13:26:02;;;;;;;18.90;13.05;;;;;;;;;;5003083;28;20608;-44
2022/12/09 13:28:34;;;;;;;20.67;12.82;;;;;;;;;;4998043;28;20172;-43
2022/12/09 13:31:00;;;;;;;16.30;12.38;;;;;;;;;;5007927;28;20566;-43
2022/12/09 13:33:40;;;;;;;18.10;13.00;;;;;;;;;;5003198;28;20583;-43
2022/12/09 13:36:24;;;;;;;17.65;12.43;;;;;;;;;;4992982;28;20195;-43
2022/12/09 13:38:50;;;;;;;20.60;13.15;;;;;;;;;;5000569;28;20555;-43
2022/12/09 13:41:25;;;;;;;23.73;13.70;;;;;;;;;;4999512;28;20173;-43
2022/12/09 13:43:54;;;;;;;20.98;13.50;;;;;;;;;;4999772;28;20415;-43
2022/12/09 13:46:22;;;;;;;17.50;13.73;;;;;;;;;;5000080;28;20192;-43
2022/12/09 13:48:48;;;;;;;20.00;13.23;;;;;;;;;;5001177;28;20189;-42
2022/12/09 13:51:15;;;;;;;22.25;14.80;;;;;;;;;;5002853;28;20248;-42
2022/12/09 13:53:43;;;;;;;22.67;13.27;;;;;;;;;;5001587;28;21226;-44
2022/12/09 13:56:19;;;;;;;25.45;15.13;;;;;;;;;;5002885;28;20212;-43
2022/12/09 13:59:00;;;;;;;20.17;13.80;;;;;;;;;;4992738;28;20601;-44
2022/12/09 14:01:32;;;;;;;22.10;14.52;;;;;;;;;;5003553;28;20177;-43
2022/12/09 14:04:27;;;;;;;22.00;14.80;;;;;;;;;;4999813;28;20195;-42
2022/12/09 14:07:07;;;;;;;25.85;16.98;;;;;;;;;;5001421;28;20189;-44
2022/12/09 14:09:39;;;;;;;27.25;16.77;;;;;;;;;;4996030;28;20184;-43
2022/12/09 14:12:06;;;;;;;28.15;16.40;;;;;;;;;;4991906;28;20765;-44
2022/12/09 14:14:32;;;;;;;26.13;16.27;;;;;;;;;;5004909;28;20173;-43
2022/12/09 14:17:03;;;;;;;25.63;17.20;;;;;;;;;;5002401;28;20161;-44
2022/12/09 14:19:31;;;;;;;25.10;17.05;;;;;;;;;;5006978;28;20951;-43
2022/12/09 14:22:16;;;;;;;27.13;17.80;;;;;;;;;;4999600;28;20277;-43
2022/12/09 14:24:42;;;;;;;32.72;19.85;;;;;;;;;;5001029;28;20176;-43
2022/12/09 14:27:11;;;;;;;31.77;18.73;;;;;;;;;;4998109;28;20176;-44
2022/12/09 14:29:44;;;;;;;40.85;22.35;;;;;;;;;;4998163;28;20215;-43
2022/12/09 14:32:29;;;;;;;31.83;22.35;;;;;;;;;;5002932;28;20214;-44